Time;durP1;ratioP1;P1;durP2;ratioP2;P2;SDS_P1;SDS_P2;PMS_P1;PMS_P2;Temp;Humidity;BMP_temperature;BMP_pressure;BME280_temperature;BME280_humidity;BME280_pressure;Samples;Min_cycle;Max_cycle;Signal;HPM_P1;HPM_P2
2019/06/17 00:02:24;;;;;;;5.9;4.7;;;;;;;;;;;;;
2019/06/17 00:04:45;;;;;;;5.5;4.7;;;;;;;;;;;;;
2019/06/17 00:07:10;;;;;;;5.7;5.1;;;;;;;;;;;;;
2019/06/17 00:09:35;;;;;;;7.2;5.4;;;;;;;;;;;;;
2019/06/17 00:12:00;;;;;;;5.5;4.8;;;;;;;;;;;;;
2019/06/17 00:14:25;;;;;;;5.2;4.6;;;;;;;;;;;;;
2019/06/17 00:16:50;;;;;;;6.2;5.2;;;;;;;;;;;;;
2019/06/17 00:19:15;;;;;;;7.3;4.7;;;;;;;;;;;;;
2019/06/17 00:21:40;;;;;;;6;5;;;;;;;;;;;;;
2019/06/17 00:24:07;;;;;;;6.1;5.3;;;;;;;;;;;;;
2019/06/17 00:26:32;;;;;;;6;5.1;;;;;;;;;;;;;
2019/06/17 00:28:57;;;;;;;8;4.6;;;;;;;;;;;;;
2019/06/17 00:31:22;;;;;;;6.6;4.9;;;;;;;;;;;;;
2019/06/17 00:33:47;;;;;;;5.6;4.6;;;;;;;;;;;;;
2019/06/17 00:36:12;;;;;;;7.4;5.3;;;;;;;;;;;;;
2019/06/17 00:38:37;;;;;;;6.1;4.7;;;;;;;;;;;;;
2019/06/17 00:41:02;;;;;;;9.3;5.3;;;;;;;;;;;;;
2019/06/17 00:43:27;;;;;;;7.3;4.9;;;;;;;;;;;;;
2019/06/17 00:45:52;;;;;;;5.4;4.9;;;;;;;;;;;;;
2019/06/17 00:48:18;;;;;;;6.9;4.8;;;;;;;;;;;;;
2019/06/17 00:50:43;;;;;;;7.2;4.9;;;;;;;;;;;;;
2019/06/17 00:53:08;;;;;;;6.6;4.8;;;;;;;;;;;;;
2019/06/17 00:55:33;;;;;;;5.3;4.8;;;;;;;;;;;;;
2019/06/17 00:57:58;;;;;;;6.7;5.1;;;;;;;;;;;;;
2019/06/17 01:00:23;;;;;;;6.4;4.7;;;;;;;;;;;;;
2019/06/17 01:02:48;;;;;;;5.5;5;;;;;;;;;;;;;
2019/06/17 01:05:13;;;;;;;5.4;4.9;;;;;;;;;;;;;
2019/06/17 01:07:38;;;;;;;8.1;4.8;;;;;;;;;;;;;
2019/06/17 01:10:03;;;;;;;5.5;4.8;;;;;;;;;;;;;
2019/06/17 01:12:28;;;;;;;6.5;4.9;;;;;;;;;;;;;
2019/06/17 01:14:54;;;;;;;6.6;5.1;;;;;;;;;;;;;
2019/06/17 01:17:19;;;;;;;6.3;5;;;;;;;;;;;;;
2019/06/17 01:19:44;;;;;;;6.1;5.1;;;;;;;;;;;;;
2019/06/17 01:22:10;;;;;;;7.5;5.4;;;;;;;;;;;;;
2019/06/17 01:24:35;;;;;;;5.9;5.3;;;;;;;;;;;;;
2019/06/17 01:27:00;;;;;;;6.5;5.1;;;;;;;;;;;;;
2019/06/17 01:29:25;;;;;;;8.4;5.5;;;;;;;;;;;;;
2019/06/17 01:31:50;;;;;;;8.8;5.6;;;;;;;;;;;;;
2019/06/17 01:34:15;;;;;;;6.9;5.8;;;;;;;;;;;;;
2019/06/17 01:36:41;;;;;;;8.2;5.6;;;;;;;;;;;;;
2019/06/17 01:39:06;;;;;;;7.6;5.5;;;;;;;;;;;;;
2019/06/17 01:41:31;;;;;;;9.8;5.8;;;;;;;;;;;;;
2019/06/17 01:43:56;;;;;;;8.1;5.5;;;;;;;;;;;;;
2019/06/17 01:46:21;;;;;;;6;5.3;;;;;;;;;;;;;
2019/06/17 01:48:46;;;;;;;6.4;5.5;;;;;;;;;;;;;
2019/06/17 01:51:11;;;;;;;7.4;5.8;;;;;;;;;;;;;
2019/06/17 01:53:37;;;;;;;6.1;5.5;;;;;;;;;;;;;
2019/06/17 01:56:02;;;;;;;8.5;5.8;;;;;;;;;;;;;
2019/06/17 01:58:27;;;;;;;7.3;5.2;;;;;;;;;;;;;
2019/06/17 02:00:52;;;;;;;6.1;5.2;;;;;;;;;;;;;
2019/06/17 02:03:17;;;;;;;7.3;5.8;;;;;;;;;;;;;
2019/06/17 02:06:17;;;;;;;6;5.4;;;;;;;;;;;;;
2019/06/17 02:08:07;;;;;;;6.9;5.7;;;;;;;;;;;;;
2019/06/17 02:10:32;;;;;;;6.4;5.8;;;;;;;;;;;;;
2019/06/17 02:12:58;;;;;;;7.1;5.7;;;;;;;;;;;;;
2019/06/17 02:15:23;;;;;;;6.2;5.6;;;;;;;;;;;;;
2019/06/17 02:17:48;;;;;;;6.6;5.9;;;;;;;;;;;;;
2019/06/17 02:20:13;;;;;;;8;6;;;;;;;;;;;;;
2019/06/17 02:22:38;;;;;;;7;5.9;;;;;;;;;;;;;
2019/06/17 02:25:03;;;;;;;6.8;6.1;;;;;;;;;;;;;
2019/06/17 02:27:28;;;;;;;8.3;6.2;;;;;;;;;;;;;
2019/06/17 02:29:53;;;;;;;7;6;;;;;;;;;;;;;
2019/06/17 02:32:18;;;;;;;7;6.2;;;;;;;;;;;;;
2019/06/17 02:34:43;;;;;;;9.2;6.7;;;;;;;;;;;;;
2019/06/17 02:37:08;;;;;;;7.7;6.7;;;;;;;;;;;;;
2019/06/17 02:39:33;;;;;;;7;6.3;;;;;;;;;;;;;
2019/06/17 02:41:59;;;;;;;7.9;6.4;;;;;;;;;;;;;
2019/06/17 02:44:24;;;;;;;6.8;6.2;;;;;;;;;;;;;
2019/06/17 02:46:49;;;;;;;8.9;6.7;;;;;;;;;;;;;
2019/06/17 02:49:14;;;;;;;8.3;6.5;;;;;;;;;;;;;
2019/06/17 02:51:39;;;;;;;7.8;6.8;;;;;;;;;;;;;
2019/06/17 02:54:04;;;;;;;8.8;7;;;;;;;;;;;;;
2019/06/17 02:56:29;;;;;;;8.2;7.3;;;;;;;;;;;;;
2019/06/17 02:58:54;;;;;;;8.4;7.2;;;;;;;;;;;;;
2019/06/17 03:01:19;;;;;;;9.7;7.2;;;;;;;;;;;;;
2019/06/17 03:03:45;;;;;;;8.3;7.5;;;;;;;;;;;;;
2019/06/17 03:06:09;;;;;;;8.9;7.3;;;;;;;;;;;;;
2019/06/17 03:08:35;;;;;;;9.5;8;;;;;;;;;;;;;
2019/06/17 03:11:00;;;;;;;10;8.3;;;;;;;;;;;;;
2019/06/17 03:13:25;;;;;;;9.7;8.1;;;;;;;;;;;;;
2019/06/17 03:15:50;;;;;;;8.5;7.6;;;;;;;;;;;;;
2019/06/17 03:18:15;;;;;;;9.6;7.6;;;;;;;;;;;;;
2019/06/17 03:20:40;;;;;;;8.8;7.7;;;;;;;;;;;;;
2019/06/17 03:23:05;;;;;;;10.2;7.6;;;;;;;;;;;;;
2019/06/17 03:25:30;;;;;;;9.1;7.3;;;;;;;;;;;;;
2019/06/17 03:27:55;;;;;;;8.7;7.2;;;;;;;;;;;;;
2019/06/17 03:30:20;;;;;;;10.5;7.6;;;;;;;;;;;;;
2019/06/17 03:32:46;;;;;;;10.5;7.4;;;;;;;;;;;;;
2019/06/17 03:35:11;;;;;;;8.7;7;;;;;;;;;;;;;
2019/06/17 03:37:36;;;;;;;8.7;7.6;;;;;;;;;;;;;
2019/06/17 03:40:01;;;;;;;10.6;7.6;;;;;;;;;;;;;
2019/06/17 03:42:26;;;;;;;13.7;7.7;;;;;;;;;;;;;
2019/06/17 03:44:51;;;;;;;9.8;7.6;;;;;;;;;;;;;
2019/06/17 03:47:16;;;;;;;9.5;7.5;;;;;;;;;;;;;
2019/06/17 03:49:42;;;;;;;10.9;7.5;;;;;;;;;;;;;
2019/06/17 03:52:07;;;;;;;11.5;7.8;;;;;;;;;;;;;
2019/06/17 03:54:32;;;;;;;8.8;7.6;;;;;;;;;;;;;
2019/06/17 03:56:57;;;;;;;10.6;8.1;;;;;;;;;;;;;
2019/06/17 03:59:22;;;;;;;10.7;8.1;;;;;;;;;;;;;
2019/06/17 04:02:28;;;;;;;10.4;8.2;;;;;;;13.97;87.76367;1007.472;;;;
2019/06/17 04:04:53;;;;;;;11.5;8.5;;;;;;;13.93;87.88281;1007.468;;;;
2019/06/17 04:07:18;;;;;;;10.2;8.5;;;;;;;13.99;87.60547;1007.49;;;;
2019/06/17 04:09:43;;;;;;;8.9;8;;;;;;;14.02;87.56641;1007.405;;;;
2019/06/17 04:12:08;;;;;;;11.9;8.6;;;;;;;14.03;87.4541;1007.395;;;;
2019/06/17 04:14:33;;;;;;;9.9;8.4;;;;;;;14.12;87.05566;1007.338;;;;
2019/06/17 04:16:58;;;;;;;10.4;8.5;;;;;;;14.16;86.94922;1007.415;;;;
2019/06/17 04:19:24;;;;;;;11.3;8.6;;;;;;;14.21;86.92285;1007.381;;;;
2019/06/17 04:21:49;;;;;;;10.4;8.6;;;;;;;14.26;86.82813;1007.392;;;;
2019/06/17 04:24:14;;;;;;;11.6;8.3;;;;;;;14.33;86.61133;1007.423;;;;
2019/06/17 04:26:39;;;;;;;10.1;8;;;;;;;14.35;86.66309;1007.443;;;;
2019/06/17 04:29:04;;;;;;;11.2;8.1;;;;;;;14.45;86.08203;1007.405;;;;
2019/06/17 04:31:29;;;;;;;12.1;8.9;;;;;;;14.54;85.8457;1007.369;;;;
2019/06/17 04:33:54;;;;;;;9.2;7.9;;;;;;;14.65;85.56445;1007.411;;;;
2019/06/17 04:36:19;;;;;;;10.6;8.2;;;;;;;14.78;85.0957;1007.409;;;;
2019/06/17 04:38:45;;;;;;;10.8;8.1;;;;;;;14.95;84.36426;1007.443;;;;
2019/06/17 04:41:10;;;;;;;10.8;7.3;;;;;;;15.16;83.42285;1007.409;;;;
2019/06/17 04:43:35;;;;;;;8.8;7.5;;;;;;;15.33;82.94434;1007.38;;;;
2019/06/17 04:46:00;;;;;;;13.3;7.3;;;;;;;15.61;81.56055;1007.369;;;;
2019/06/17 04:48:25;;;;;;;8.7;6.6;;;;;;;16.14;79.14355;1007.374;;;;
2019/06/17 04:50:50;;;;;;;9;6.7;;;;;;;16.71;76.92383;1007.395;;;;
2019/06/17 04:53:15;;;;;;;7.9;6.5;;;;;;;17;75.1748;1007.364;;;;
2019/06/17 04:55:40;;;;;;;8.7;6.3;;;;;;;17.38;73.44922;1007.325;;;;
2019/06/17 04:58:05;;;;;;;8.6;6.5;;;;;;;17.73;72.05176;1007.405;;;;
2019/06/17 05:00:30;;;;;;;10.3;6.2;;;;;;;17.93;71.44531;1007.403;;;;
2019/06/17 05:02:55;;;;;;;7.5;6.2;;;;;;;17.76;71.94043;1007.394;;;;
2019/06/17 05:05:21;;;;;;;7.7;6;;;;;;;17.89;71.81152;1007.346;;;;
2019/06/17 05:07:46;;;;;;;9.3;6.5;;;;;;;17.66;72.43652;1007.357;;;;
2019/06/17 05:10:11;;;;;;;9.2;6.4;;;;;;;17.85;71.55957;1007.377;;;;
2019/06/17 05:12:38;;;;;;;9.6;6.4;;;;;;;17.75;71.9043;1007.421;;;;
2019/06/17 05:15:03;;;;;;;8.9;6.5;;;;;;;17.79;72.37793;1007.453;;;;
2019/06/17 05:17:28;;;;;;;8.2;6.5;;;;;;;17.69;72.4873;1007.515;;;;
2019/06/17 05:19:53;;;;;;;9;6.9;;;;;;;17.47;73.44043;1007.499;;;;
2019/06/17 05:22:18;;;;;;;11.6;7.4;;;;;;;17.38;74.36719;1007.504;;;;
2019/06/17 05:24:43;;;;;;;8.8;6.7;;;;;;;17.84;72.72266;1007.432;;;;
2019/06/17 05:27:08;;;;;;;8.8;6.5;;;;;;;18.08;72.16895;1007.397;;;;
2019/06/17 05:29:33;;;;;;;11.2;6.2;;;;;;;18.4;71.61426;1007.444;;;;
2019/06/17 05:32:04;;;;;;;8.5;6.9;;;;;;;18.37;71.37695;1007.451;;;;
2019/06/17 05:34:24;;;;;;;7.7;6.6;;;;;;;18.5;70.48828;1007.427;;;;
2019/06/17 05:36:49;;;;;;;7.1;6.2;;;;;;;18.62;70.30859;1007.36;;;;
2019/06/17 05:39:14;;;;;;;9.4;6.5;;;;;;;18.57;69.70605;1007.351;;;;
2019/06/17 05:41:39;;;;;;;8.4;6.3;;;;;;;18.9;69.54883;1007.342;;;;
2019/06/17 05:44:04;;;;;;;8.2;5.9;;;;;;;18.98;68.83789;1007.418;;;;
2019/06/17 05:46:30;;;;;;;7.2;6.2;;;;;;;19.05;68.33496;1007.406;;;;
2019/06/17 05:48:55;;;;;;;8;6.3;;;;;;;19.13;68.02051;1007.4;;;;
2019/06/17 05:51:21;;;;;;;8.1;5.7;;;;;;;19.29;67.87988;1007.393;;;;
2019/06/17 05:53:47;;;;;;;7.4;5.6;;;;;;;19.47;67.06836;1007.453;;;;
2019/06/17 05:56:12;;;;;;;8.4;5.8;;;;;;;19.7;66.81152;1007.41;;;;
2019/06/17 05:58:37;;;;;;;8.4;6.4;;;;;;;19.94;65.66699;1007.448;;;;
2019/06/17 06:01:02;;;;;;;8;5.8;;;;;;;19.99;65.40332;1007.459;;;;
2019/06/17 06:03:27;;;;;;;8.3;5.7;;;;;;;20.24;65.15918;1007.441;;;;
2019/06/17 06:05:52;;;;;;;10.7;5.2;;;;;;;20.91;63.51367;1007.495;;;;
2019/06/17 06:08:50;;;;;;;7.2;5.4;;;;;;;21.27;61.67676;1007.457;;;;
2019/06/17 06:10:43;;;;;;;7.9;5.1;;;;;;;21.7;60.18555;1007.503;;;;
2019/06/17 06:13:09;;;;;;;6;5.1;;;;;;;21.37;60.5625;1007.481;;;;
2019/06/17 06:15:34;;;;;;;7.6;5.6;;;;;;;21.05;61.97168;1007.497;;;;
2019/06/17 06:17:59;;;;;;;8.6;5.7;;;;;;;20.9;62.81934;1007.496;;;;
2019/06/17 06:20:24;;;;;;;8;6;;;;;;;20.73;63.28906;1007.466;;;;
2019/06/17 06:22:52;;;;;;;6.8;5.9;;;;;;;20.61;63.31738;1007.511;;;;
2019/06/17 06:25:17;;;;;;;7.3;6;;;;;;;20.55;63.64844;1007.527;;;;
2019/06/17 06:27:43;;;;;;;7.6;6.2;;;;;;;20.38;64.45508;1007.528;;;;
2019/06/17 06:30:10;;;;;;;7.6;5.8;;;;;;;20.54;63.7041;1007.494;;;;
2019/06/17 06:32:35;;;;;;;7.9;6;;;;;;;20.54;64.06738;1007.527;;;;
2019/06/17 06:35:00;;;;;;;7.8;5.7;;;;;;;21.33;61.90723;1007.479;;;;
2019/06/17 06:37:25;;;;;;;7;5.7;;;;;;;21.48;61.71582;1007.435;;;;
2019/06/17 06:39:50;;;;;;;10.4;8.1;;;;;;;21.94;60.1123;1007.391;;;;
2019/06/17 06:42:15;;;;;;;6.4;5.7;;;;;;;21.62;60.99512;1007.385;;;;
2019/06/17 06:44:41;;;;;;;6.2;5.6;;;;;;;21.44;61.55859;1007.373;;;;
2019/06/17 06:47:06;;;;;;;6.3;5.2;;;;;;;22.31;59.62012;1007.31;;;;
2019/06/17 06:49:31;;;;;;;6.9;4.8;;;;;;;23.38;56.60449;1007.29;;;;
2019/06/17 06:51:56;;;;;;;5.6;4.4;;;;;;;23.34;54.90332;1007.272;;;;
2019/06/17 06:54:21;;;;;;;6.9;4.9;;;;;;;23.04;56.51465;1007.256;;;;
2019/06/17 06:56:47;;;;;;;5.2;4.2;;;;;;;24.15;54.39941;1007.212;;;;
2019/06/17 06:59:12;;;;;;;5.2;4.1;;;;;;;24.84;51.96582;1007.253;;;;
2019/06/17 07:01:37;;;;;;;4.7;3.9;;;;;;;25.32;48.69531;1007.199;;;;
2019/06/17 07:04:07;;;;;;;4.3;3.8;;;;;;;26.59;45.91211;1007.205;;;;
2019/06/17 07:06:32;;;;;;;7.1;3.6;;;;;;;26.78;45.30176;1007.236;;;;
2019/06/17 07:08:57;;;;;;;4.5;3.6;;;;;;;27.13;44.20801;1007.239;;;;
2019/06/17 07:11:22;;;;;;;4.7;3.6;;;;;;;27.56;43.19141;1007.257;;;;
2019/06/17 07:13:47;;;;;;;3.6;3.3;;;;;;;27.89;41.53223;1007.173;;;;
2019/06/17 07:16:12;;;;;;;5.5;3.3;;;;;;;28.65;40.01563;1007.164;;;;
2019/06/17 07:18:39;;;;;;;3.8;3.4;;;;;;;27.47;42.63574;1007.159;;;;
2019/06/17 07:21:04;;;;;;;4.8;3.2;;;;;;;26.97;42.93262;1007.133;;;;
2019/06/17 07:23:29;;;;;;;3.9;3.1;;;;;;;27.45;41.36035;1007.14;;;;
2019/06/17 07:25:55;;;;;;;4.2;2.8;;;;;;;28.35;39.5127;1007.098;;;;
2019/06/17 07:28:21;;;;;;;4.6;2.9;;;;;;;28.3;39.51953;1007.045;;;;
2019/06/17 07:30:46;;;;;;;4;2.9;;;;;;;28.29;39.65039;1007.09;;;;
2019/06/17 07:33:10;;;;;;;4.1;2.8;;;;;;;28.01;39.33984;1007.03;;;;
2019/06/17 07:35:36;;;;;;;3.4;2.9;;;;;;;28.66;37.54883;1007.095;;;;
2019/06/17 07:38:01;;;;;;;5.4;2.9;;;;;;;27.2;40.06641;1007.072;;;;
2019/06/17 07:40:26;;;;;;;2.9;2.7;;;;;;;28.27;38.45703;1007.021;;;;
2019/06/17 07:42:51;;;;;;;3.4;2.5;;;;;;;29.29;36.45313;1007.025;;;;
2019/06/17 07:45:16;;;;;;;3.2;2.7;;;;;;;28.78;37.5332;1006.939;;;;
2019/06/17 07:47:41;;;;;;;4.5;2.8;;;;;;;29.36;36.35156;1006.935;;;;
2019/06/17 07:50:06;;;;;;;4.3;3;;;;;;;28.45;37.70898;1006.915;;;;
2019/06/17 07:52:31;;;;;;;3.4;2.7;;;;;;;29.84;36.06836;1006.954;;;;
2019/06/17 07:54:56;;;;;;;3.8;2.7;;;;;;;30.41;34.64063;1006.825;;;;
2019/06/17 07:57:22;;;;;;;3.6;2.9;;;;;;;30.54;33.82422;1006.818;;;;
2019/06/17 07:59:46;;;;;;;3.7;2.5;;;;;;;30.43;34.35547;1006.822;;;;
2019/06/17 08:02:12;;;;;;;5.1;2.9;;;;;;;30.09;34.73535;1006.796;;;;
2019/06/17 08:04:37;;;;;;;3.7;2.9;;;;;;;29.68;35.20605;1006.837;;;;
2019/06/17 08:07:25;;;;;;;2.9;2.6;;;;;;;28.6;37.94824;1006.74;;;;
2019/06/17 08:09:27;;;;;;;4.9;2.6;;;;;;;29.9;35.4502;1006.75;;;;
2019/06/17 08:11:52;;;;;;;3.3;2.5;;;;;;;29.28;34.76953;1006.853;;;;
2019/06/17 08:14:17;;;;;;;5.1;2.6;;;;;;;29.08;35.50586;1006.798;;;;
2019/06/17 08:16:42;;;;;;;3.6;2.4;;;;;;;28.45;36.38574;1006.68;;;;
2019/06/17 08:19:07;;;;;;;2.7;2.5;;;;;;;28.15;36.7666;1006.649;;;;
2019/06/17 08:21:38;;;;;;;2.7;2.5;;;;;;;28.53;36.35645;1006.639;;;;
2019/06/17 08:23:58;;;;;;;4.4;2.7;;;;;;;28.24;36.83398;1006.614;;;;
2019/06/17 08:26:23;;;;;;;3.4;2.4;;;;;;;28.46;36.20801;1006.666;;;;
2019/06/17 08:28:48;;;;;;;3.8;2.4;;;;;;;28.73;35.7041;1006.589;;;;
2019/06/17 08:31:13;;;;;;;3.5;2.8;;;;;;;28.98;36.11816;1006.537;;;;
2019/06/17 08:33:38;;;;;;;4.3;2.7;;;;;;;28.98;36.16602;1006.56;;;;
2019/06/17 08:36:03;;;;;;;2.9;2.3;;;;;;;30.16;34.17871;1006.56;;;;
2019/06/17 08:38:29;;;;;;;2.7;2.4;;;;;;;30.08;34.74707;1006.594;;;;
2019/06/17 08:40:54;;;;;;;3.7;2.6;;;;;;;29.66;34.7627;1006.575;;;;
2019/06/17 08:43:19;;;;;;;3.2;2.8;;;;;;;29.4;35.33887;1006.539;;;;
2019/06/17 08:45:44;;;;;;;3.1;2.3;;;;;;;31.21;31.61816;1006.456;;;;
2019/06/17 08:48:09;;;;;;;2.6;2.4;;;;;;;29.06;34.62109;1006.473;;;;
2019/06/17 08:50:34;;;;;;;2.5;2.2;;;;;;;29.23;33.09277;1006.54;;;;
2019/06/17 08:53:01;;;;;;;2.9;2.4;;;;;;;28.38;34.75879;1006.506;;;;
2019/06/17 08:55:27;;;;;;;2.4;2.2;;;;;;;28.92;34.22754;1006.478;;;;
2019/06/17 08:57:51;;;;;;;3.4;2.3;;;;;;;28.85;34.29395;1006.444;;;;
2019/06/17 09:00:16;;;;;;;2.5;2.2;;;;;;;29.43;33.37012;1006.441;;;;
2019/06/17 09:02:41;;;;;;;2.6;1.9;;;;;;;30.48;30.59766;1006.323;;;;
2019/06/17 09:05:06;;;;;;;2.4;2;;;;;;;30.64;31.05273;1006.403;;;;
2019/06/17 09:07:31;;;;;;;2.3;1.8;;;;;;;29.72;31.1084;1006.346;;;;
2019/06/17 09:09:57;;;;;;;3.2;2.4;;;;;;;29.87;31.96777;1006.417;;;;
2019/06/17 09:12:23;;;;;;;2.6;2.1;;;;;;;29.46;32.81055;1006.352;;;;
2019/06/17 09:14:48;;;;;;;2.4;2.2;;;;;;;30.12;32.03418;1006.282;;;;
2019/06/17 09:17:13;;;;;;;2.5;2.3;;;;;;;29.22;33.46289;1006.318;;;;
2019/06/17 09:19:38;;;;;;;3.2;2.4;;;;;;;29.25;33.71582;1006.32;;;;
2019/06/17 09:22:03;;;;;;;4.2;2.5;;;;;;;31.08;30.98633;1006.199;;;;
2019/06/17 09:24:28;;;;;;;2.5;2.1;;;;;;;29.99;31.84375;1006.246;;;;
2019/06/17 09:26:53;;;;;;;3;1.9;;;;;;;30.11;32.17578;1006.141;;;;
2019/06/17 09:29:19;;;;;;;2.5;2.2;;;;;;;29.81;31.86816;1006.244;;;;
2019/06/17 09:31:44;;;;;;;3.3;2.1;;;;;;;29.97;32.08301;1006.13;;;;
2019/06/17 09:34:09;;;;;;;2.2;2;;;;;;;30.01;32.33691;1006.113;;;;
2019/06/17 09:36:34;;;;;;;3.1;2.3;;;;;;;30.8;30.17578;1006.062;;;;
2019/06/17 09:38:59;;;;;;;2.4;2.2;;;;;;;30.48;31.50781;1006.011;;;;
2019/06/17 09:41:25;;;;;;;2.4;2.2;;;;;;;29.87;32.96094;1005.987;;;;
2019/06/17 09:43:50;;;;;;;2.6;2.1;;;;;;;30.3;30.9082;1005.97;;;;
2019/06/17 09:46:16;;;;;;;3.7;2.4;;;;;;;30.38;31.99219;1005.935;;;;
2019/06/17 09:48:41;;;;;;;2.4;2.2;;;;;;;30.61;31.44531;1005.919;;;;
2019/06/17 09:51:06;;;;;;;3;2.4;;;;;;;30.48;31.36426;1005.919;;;;
2019/06/17 09:53:31;;;;;;;3.6;2.1;;;;;;;30.48;31.19629;1005.876;;;;
2019/06/17 09:55:56;;;;;;;3.3;2.2;;;;;;;31.39;30.08301;1005.917;;;;
2019/06/17 09:58:21;;;;;;;2.9;2;;;;;;;29.78;31.86523;1005.933;;;;
2019/06/17 10:00:46;;;;;;;2.7;2.2;;;;;;;29.93;32.15137;1005.905;;;;
2019/06/17 10:03:11;;;;;;;3.3;2.2;;;;;;;29.38;33.31934;1005.868;;;;
2019/06/17 10:05:37;;;;;;;2.9;2.2;;;;;;;29.08;34.06055;1005.821;;;;
2019/06/17 10:08:02;;;;;;;2.4;2.1;;;;;;;29.94;33.07324;1005.73;;;;
2019/06/17 10:10:27;;;;;;;2.4;2.2;;;;;;;29.04;33.97363;1005.747;;;;
2019/06/17 10:12:52;;;;;;;2.4;2.2;;;;;;;29.25;34.2168;1005.875;;;;
2019/06/17 10:15:17;;;;;;;2.8;2.4;;;;;;;28.49;34.1709;1005.883;;;;
2019/06/17 10:17:42;;;;;;;2.3;2.1;;;;;;;29.34;33.45996;1005.861;;;;
2019/06/17 10:20:07;;;;;;;2.5;2.3;;;;;;;28.84;34.40039;1005.821;;;;
2019/06/17 10:22:32;;;;;;;3.4;2.4;;;;;;;30.32;32.15527;1005.758;;;;
2019/06/17 10:24:58;;;;;;;2.6;2.1;;;;;;;29.12;33.41895;1005.826;;;;
2019/06/17 10:27:23;;;;;;;2.8;2.4;;;;;;;28.63;35.10059;1005.738;;;;
2019/06/17 10:29:51;;;;;;;3;2.4;;;;;;;29.89;31.90918;1005.691;;;;
2019/06/17 10:32:16;;;;;;;3.9;2.5;;;;;;;29.99;31.97559;1005.677;;;;
2019/06/17 10:34:41;;;;;;;2.9;2.4;;;;;;;28.96;34.71973;1005.7;;;;
2019/06/17 10:37:06;;;;;;;3.1;2.5;;;;;;;27.32;36.79395;1005.667;;;;
2019/06/17 10:39:31;;;;;;;2.8;2.5;;;;;;;26.8;38.79492;1005.655;;;;
2019/06/17 10:41:56;;;;;;;2.7;2.3;;;;;;;26.93;38.69824;1005.699;;;;
2019/06/17 10:44:22;;;;;;;2.8;2.5;;;;;;;26.79;38.98438;1005.576;;;;
2019/06/17 10:46:48;;;;;;;3.4;2.5;;;;;;;26.89;38.5293;1005.57;;;;
2019/06/17 10:49:13;;;;;;;2.8;2.5;;;;;;;27.32;37.93555;1005.559;;;;
2019/06/17 10:51:38;;;;;;;3.5;2.5;;;;;;;26.98;38.25098;1005.558;;;;
2019/06/17 10:54:03;;;;;;;3.6;2.5;;;;;;;27.55;37.64551;1005.482;;;;
2019/06/17 10:56:28;;;;;;;4.1;2.6;;;;;;;27.21;37.55762;1005.548;;;;
2019/06/17 10:58:55;;;;;;;3.7;2.7;;;;;;;25.96;39.50391;1005.572;;;;
2019/06/17 11:01:20;;;;;;;2.8;2.5;;;;;;;25.8;39.46582;1005.505;;;;
2019/06/17 11:03:45;;;;;;;4;3;;;;;;;25.74;40.82422;1005.503;;;;
2019/06/17 11:06:11;;;;;;;3.8;2.6;;;;;;;25.94;39.45605;1005.459;;;;
2019/06/17 11:08:36;;;;;;;4.6;2.8;;;;;;;25.69;40.77246;1005.471;;;;
2019/06/17 11:11:01;;;;;;;3;2.7;;;;;;;25.63;42.15332;1005.381;;;;
2019/06/17 11:13:26;;;;;;;3.8;2.9;;;;;;;25.55;42.77441;1005.402;;;;
2019/06/17 11:15:51;;;;;;;3.7;2.8;;;;;;;25.66;41.89453;1005.37;;;;
2019/06/17 11:18:16;;;;;;;4.1;3;;;;;;;25.99;42.41309;1005.38;;;;
2019/06/17 11:20:41;;;;;;;3.3;3;;;;;;;25.72;43.27539;1005.382;;;;
2019/06/17 11:23:06;;;;;;;4;3.1;;;;;;;25.91;42.74902;1005.356;;;;
2019/06/17 11:25:31;;;;;;;3.3;3;;;;;;;25.96;42.88379;1005.263;;;;
2019/06/17 11:27:57;;;;;;;3.6;3;;;;;;;26.31;42.35938;1005.273;;;;
2019/06/17 11:30:22;;;;;;;3.9;3.3;;;;;;;26.55;42.33398;1005.154;;;;
2019/06/17 11:32:47;;;;;;;4.5;3.4;;;;;;;26.24;42.19824;1005.273;;;;
2019/06/17 11:35:13;;;;;;;4.9;3.2;;;;;;;26.15;43.82715;1005.233;;;;
2019/06/17 11:37:38;;;;;;;4.1;3;;;;;;;25.94;43.41504;1005.189;;;;
2019/06/17 11:40:03;;;;;;;3.8;3.1;;;;;;;26.21;42.25488;1005.209;;;;
2019/06/17 11:42:28;;;;;;;3.7;3;;;;;;;26.65;41.82129;1005.192;;;;
2019/06/17 11:44:53;;;;;;;4.7;3.2;;;;;;;26.06;42.2998;1005.174;;;;
2019/06/17 11:47:18;;;;;;;4.9;3.2;;;;;;;26.15;42.42676;1005.116;;;;
2019/06/17 11:49:44;;;;;;;3.6;3;;;;;;;26.26;42.10547;1005.061;;;;
2019/06/17 11:52:09;;;;;;;4.4;3.4;;;;;;;25.85;42.93164;1005.028;;;;
2019/06/17 11:54:34;;;;;;;4.8;2.8;;;;;;;26.04;41.2666;1005.041;;;;
2019/06/17 11:56:59;;;;;;;2.9;2.5;;;;;;;26.01;40.00684;1005.033;;;;
2019/06/17 11:59:24;;;;;;;5.3;2.8;;;;;;;26.03;40.36426;1004.943;;;;
2019/06/17 12:01:49;;;;;;;2.9;2.6;;;;;;;26.07;40.58203;1004.938;;;;
2019/06/17 12:04:14;;;;;;;3.6;2.9;;;;;;;26.1;39.83691;1004.932;;;;
2019/06/17 12:06:39;;;;;;;3.5;2.7;;;;;;;26.24;41.28418;1004.936;;;;
2019/06/17 12:09:05;;;;;;;3.5;3.1;;;;;;;26.19;41.64844;1004.879;;;;
2019/06/17 12:11:30;;;;;;;4.5;3.1;;;;;;;26.29;40.95703;1004.867;;;;
2019/06/17 12:13:55;;;;;;;4.7;3.2;;;;;;;26.18;41.10156;1004.895;;;;
2019/06/17 12:16:21;;;;;;;4.3;3.2;;;;;;;26.03;41.71582;1004.879;;;;
2019/06/17 12:18:46;;;;;;;4.2;2.9;;;;;;;26.31;42.08594;1004.85;;;;
2019/06/17 12:21:11;;;;;;;3.2;2.9;;;;;;;26.32;42.38477;1004.75;;;;
2019/06/17 12:23:36;;;;;;;3.6;3;;;;;;;26.51;42.27148;1004.783;;;;
2019/06/17 12:26:02;;;;;;;5.7;2.9;;;;;;;26.31;41.52832;1004.804;;;;
2019/06/17 12:28:28;;;;;;;3.6;2.9;;;;;;;26.34;42.16016;1004.733;;;;
2019/06/17 12:30:53;;;;;;;3.9;2.8;;;;;;;26.54;42.74902;1004.723;;;;
2019/06/17 12:33:18;;;;;;;4;2.9;;;;;;;26.69;40.82715;1004.753;;;;
2019/06/17 12:35:43;;;;;;;3.6;2.8;;;;;;;26.49;39.07617;1004.848;;;;
2019/06/17 12:38:08;;;;;;;4;2.7;;;;;;;26.08;38.58984;1004.815;;;;
2019/06/17 12:40:33;;;;;;;2.9;2.6;;;;;;;26.1;40.25195;1004.659;;;;
2019/06/17 12:42:58;;;;;;;3.4;3.1;;;;;;;26.44;40.27051;1004.671;;;;
2019/06/17 12:45:24;;;;;;;3;2.7;;;;;;;26.58;40.97168;1004.712;;;;
2019/06/17 12:47:49;;;;;;;3.4;2.8;;;;;;;26.41;41.68066;1004.697;;;;
2019/06/17 12:50:14;;;;;;;3.2;2.9;;;;;;;26.26;42.76953;1004.6;;;;
2019/06/17 12:52:39;;;;;;;4.3;3;;;;;;;26.01;43.13672;1004.618;;;;
2019/06/17 12:55:04;;;;;;;3.7;3.3;;;;;;;25.96;42.87109;1004.641;;;;
2019/06/17 12:57:29;;;;;;;4;2.8;;;;;;;26;42.95801;1004.536;;;;
2019/06/17 12:59:54;;;;;;;4.5;2.8;;;;;;;26.19;43.19043;1004.575;;;;
2019/06/17 13:02:19;;;;;;;4;2.9;;;;;;;26.38;42.55664;1004.53;;;;
2019/06/17 13:04:44;;;;;;;2.7;2.5;;;;;;;26.42;41.69238;1004.48;;;;
2019/06/17 13:07:09;;;;;;;3.4;2.7;;;;;;;26.44;41.48145;1004.517;;;;
2019/06/17 13:09:34;;;;;;;4.4;2.6;;;;;;;26.48;40.60645;1004.483;;;;
2019/06/17 13:11:59;;;;;;;3.1;2.8;;;;;;;26.52;40.90625;1004.455;;;;
2019/06/17 13:14:26;;;;;;;3;2.7;;;;;;;26.44;40.61523;1004.407;;;;
2019/06/17 13:16:50;;;;;;;3.1;2.7;;;;;;;26.56;41.88379;1004.41;;;;
2019/06/17 13:19:15;;;;;;;3.8;2.8;;;;;;;26.52;41.76074;1004.337;;;;
2019/06/17 13:21:40;;;;;;;3.8;3;;;;;;;26.33;41.80371;1004.345;;;;
2019/06/17 13:24:05;;;;;;;3.9;3;;;;;;;26.53;41.80957;1004.268;;;;
2019/06/17 13:26:31;;;;;;;3.5;3;;;;;;;26.5;41.94922;1004.253;;;;
2019/06/17 13:28:55;;;;;;;3.1;2.8;;;;;;;26.45;41.44629;1004.203;;;;
2019/06/17 13:31:22;;;;;;;3.2;2.9;;;;;;;26.49;42.16211;1004.254;;;;
2019/06/17 13:33:46;;;;;;;3.4;3.1;;;;;;;26.41;42.61816;1004.192;;;;
2019/06/17 13:36:11;;;;;;;3.5;3.2;;;;;;;26.33;42.90723;1004.2;;;;
2019/06/17 13:38:36;;;;;;;3.2;2.9;;;;;;;26.39;43.14941;1004.125;;;;
2019/06/17 13:41:01;;;;;;;3.1;2.8;;;;;;;26.31;41.71777;1004.078;;;;
2019/06/17 13:43:29;;;;;;;4.7;2.8;;;;;;;26.44;42.45508;1004.025;;;;
2019/06/17 13:45:54;;;;;;;4.9;3;;;;;;;26.39;42.05859;1003.991;;;;
2019/06/17 13:48:19;;;;;;;3.1;2.8;;;;;;;26.23;42.43457;1004.006;;;;
2019/06/17 13:50:44;;;;;;;4;2.7;;;;;;;26.58;43.40625;1004.002;;;;
2019/06/17 13:53:09;;;;;;;3;2.7;;;;;;;26.75;42.23438;1004.008;;;;
2019/06/17 13:55:34;;;;;;;3.3;3;;;;;;;26.67;42.91504;1003.943;;;;
2019/06/17 13:57:59;;;;;;;3.1;2.8;;;;;;;26.49;42.54199;1004.005;;;;
2019/06/17 14:00:25;;;;;;;3.4;3.1;;;;;;;26.33;42.18262;1003.953;;;;
2019/06/17 14:02:50;;;;;;;3.2;2.9;;;;;;;26.38;41.57031;1003.96;;;;
2019/06/17 14:05:18;;;;;;;3.1;2.9;;;;;;;26.35;42.6123;1003.933;;;;
2019/06/17 14:07:41;;;;;;;3.7;3.4;;;;;;;26.76;43.2334;1004.003;;;;
2019/06/17 14:10:06;;;;;;;3.1;2.9;;;;;;;26.6;42.37402;1004.002;;;;
2019/06/17 14:12:31;;;;;;;2.9;2.7;;;;;;;26.56;42.08594;1003.927;;;;
2019/06/17 14:14:58;;;;;;;3.5;2.9;;;;;;;26.44;42.40723;1003.893;;;;
2019/06/17 14:17:23;;;;;;;3.1;2.8;;;;;;;26.43;42.67969;1003.894;;;;
2019/06/17 14:19:49;;;;;;;3.2;2.9;;;;;;;26.55;43.26172;1003.843;;;;
2019/06/17 14:22:14;;;;;;;3.9;2.9;;;;;;;26.63;42.53223;1003.835;;;;
2019/06/17 14:24:39;;;;;;;3;2.8;;;;;;;26.56;43.58301;1003.831;;;;
2019/06/17 14:27:04;;;;;;;3.3;3;;;;;;;26.53;42.99707;1003.756;;;;
2019/06/17 14:29:29;;;;;;;3.4;3.1;;;;;;;26.59;43.47852;1003.727;;;;
2019/06/17 14:31:54;;;;;;;3.6;3;;;;;;;26.64;43.56641;1003.694;;;;
2019/06/17 14:34:19;;;;;;;3.1;2.8;;;;;;;26.68;43.55762;1003.685;;;;
2019/06/17 14:36:45;;;;;;;3.6;2.9;;;;;;;26.73;43.14746;1003.705;;;;
2019/06/17 14:39:10;;;;;;;3.4;3;;;;;;;26.7;43.15625;1003.69;;;;
2019/06/17 14:41:36;;;;;;;3.5;3;;;;;;;26.54;43.00977;1003.583;;;;
2019/06/17 14:44:01;;;;;;;4;3;;;;;;;26.63;43.80371;1003.555;;;;
2019/06/17 14:46:26;;;;;;;3.1;2.8;;;;;;;26.79;42.36914;1003.584;;;;
2019/06/17 14:48:53;;;;;;;3.6;3.1;;;;;;;26.58;41.80371;1003.567;;;;
2019/06/17 14:51:18;;;;;;;4.8;3;;;;;;;26.43;43.22559;1003.562;;;;
2019/06/17 14:53:43;;;;;;;4.3;3.1;;;;;;;26.47;43.2168;1003.535;;;;
2019/06/17 14:56:09;;;;;;;4.4;3.3;;;;;;;26.48;43.88379;1003.514;;;;
2019/06/17 14:58:34;;;;;;;4.7;3.3;;;;;;;26.53;43.95996;1003.54;;;;
2019/06/17 15:00:59;;;;;;;3.7;3.1;;;;;;;26.66;42.6543;1003.62;;;;
2019/06/17 15:03:26;;;;;;;3.7;3.1;;;;;;;26.59;42.87207;1003.552;;;;
2019/06/17 15:05:51;;;;;;;3.4;3.1;;;;;;;26.59;43.40723;1003.494;;;;
2019/06/17 15:08:16;;;;;;;3.6;3;;;;;;;26.54;43.10547;1003.489;;;;
2019/06/17 15:10:42;;;;;;;4.1;3;;;;;;;26.52;43.33984;1003.389;;;;
2019/06/17 15:13:07;;;;;;;3.5;3.2;;;;;;;26.52;43.98145;1003.368;;;;
2019/06/17 15:15:32;;;;;;;3.8;3.1;;;;;;;26.41;43.12891;1003.286;;;;
2019/06/17 15:17:57;;;;;;;4;3.2;;;;;;;26.54;42.99805;1003.323;;;;
2019/06/17 15:20:22;;;;;;;3.4;2.9;;;;;;;26.49;42.54199;1003.354;;;;
2019/06/17 15:22:47;;;;;;;3.5;3.2;;;;;;;26.38;42.62793;1003.272;;;;
2019/06/17 15:25:12;;;;;;;3.5;3;;;;;;;26.5;43.14941;1003.198;;;;
2019/06/17 15:27:37;;;;;;;4.7;2.9;;;;;;;26.66;42.93848;1003.197;;;;